Time;durP1;ratioP1;P1;durP2;ratioP2;P2;SDS_P1;SDS_P2;PMS_P1;PMS_P2;Temp;Humidity;BMP_temperature;BMP_pressure;BME280_temperature;BME280_humidity;BME280_pressure;Samples;Min_cycle;Max_cycle;Signal;HPM_P1;HPM_P2
2023/05/28 00:01:22;;;;;;;4.15;3.30;;;21.20;49.90;;;;;;4999614;28;20217;-76
2023/05/28 00:03:50;;;;;;;4.88;3.60;;;21.10;49.90;;;;;;4999149;28;20223;-76
2023/05/28 00:06:17;;;;;;;5.88;4.03;;;21.10;49.90;;;;;;4999168;28;20658;-76
2023/05/28 00:08:44;;;;;;;7.35;3.97;;;21.10;49.90;;;;;;4999006;28;20201;-76
2023/05/28 00:11:11;;;;;;;8.82;4.15;;;21.10;50.20;;;;;;4998965;28;20225;-76
2023/05/28 00:13:38;;;;;;;6.68;3.97;;;21.10;50.10;;;;;;4998811;28;20794;-76
2023/05/28 00:16:05;;;;;;;6.90;4.18;;;21.10;50.60;;;;;;4998973;28;20201;-76
2023/05/28 00:18:34;;;;;;;6.55;4.10;;;21.10;50.60;;;;;;4999243;28;20217;-76
2023/05/28 00:21:01;;;;;;;7.38;3.97;;;21.10;50.70;;;;;;4998591;28;20718;-76
2023/05/28 00:23:28;;;;;;;7.70;4.15;;;21.00;50.50;;;;;;4998372;28;20201;-76
2023/05/28 00:25:55;;;;;;;6.43;4.10;;;21.00;50.70;;;;;;4998813;28;20292;-76
2023/05/28 00:28:22;;;;;;;8.20;4.30;;;21.00;50.80;;;;;;4998482;28;20729;-76
2023/05/28 00:30:50;;;;;;;7.05;4.22;;;21.00;50.90;;;;;;4998633;28;20242;-76
2023/05/28 00:33:17;;;;;;;6.25;4.28;;;21.00;50.80;;;;;;4997985;28;20738;-75
2023/05/28 00:35:45;;;;;;;5.60;3.78;;;21.00;50.70;;;;;;4999273;28;20208;-75
2023/05/28 00:38:12;;;;;;;6.38;4.05;;;21.00;51.10;;;;;;4998219;28;20252;-75
2023/05/28 00:40:43;;;;;;;6.15;3.90;;;20.90;51.00;;;;;;4998318;28;20211;-75
2023/05/28 00:43:11;;;;;;;6.25;3.88;;;20.90;51.00;;;;;;4998486;28;20248;-75
2023/05/28 00:45:39;;;;;;;6.15;3.83;;;20.90;50.90;;;;;;4998312;28;20211;-75
2023/05/28 00:48:05;;;;;;;4.93;3.70;;;20.90;51.00;;;;;;4998529;28;20193;-75
2023/05/28 00:50:32;;;;;;;7.18;4.20;;;20.90;52.30;;;;;;4998175;28;20200;-75
2023/05/28 00:53:01;;;;;;;5.10;4.07;;;20.90;53.00;;;;;;4998038;28;20236;-75
2023/05/28 00:55:28;;;;;;;6.38;3.83;;;20.90;52.90;;;;;;4998646;28;20204;-75
2023/05/28 00:58:03;;;;;;;5.20;3.78;;;20.90;53.10;;;;;;5002668;28;20267;-75
2023/05/28 01:00:31;;;;;;;4.88;3.78;;;20.90;52.80;;;;;;5017635;28;20188;-75
2023/05/28 01:02:58;;;;;;;7.13;3.83;;;20.90;52.50;;;;;;5015547;28;20216;-75
2023/05/28 01:05:26;;;;;;;5.90;3.95;;;20.90;52.80;;;;;;4999379;28;20271;-75
2023/05/28 01:07:53;;;;;;;5.85;3.78;;;20.90;52.50;;;;;;4998735;28;20196;-75
2023/05/28 01:10:21;;;;;;;6.25;3.78;;;20.80;52.40;;;;;;4998667;28;20203;-75
2023/05/28 01:12:49;;;;;;;5.07;3.80;;;20.80;52.50;;;;;;4998756;28;20231;-75
2023/05/28 01:15:17;;;;;;;5.70;3.90;;;20.90;52.40;;;;;;4998035;28;20613;-75
2023/05/28 01:17:47;;;;;;;6.50;3.60;;;20.80;52.30;;;;;;4997812;28;20258;-75
2023/05/28 01:20:14;;;;;;;6.70;3.90;;;20.80;52.30;;;;;;4997623;28;20667;-75
2023/05/28 01:22:47;;;;;;;5.18;3.60;;;20.80;52.40;;;;;;5015128;28;20209;-75
2023/05/28 01:25:16;;;;;;;5.32;3.67;;;20.80;52.20;;;;;;4997625;28;20255;-75
2023/05/28 01:27:43;;;;;;;5.05;3.88;;;20.80;52.10;;;;;;4997373;28;20606;-75
2023/05/28 01:30:11;;;;;;;6.50;4.13;;;20.80;52.30;;;;;;4981183;28;20200;-75
2023/05/28 01:32:38;;;;;;;7.65;4.07;;;20.80;52.10;;;;;;4997849;28;20308;-75
2023/05/28 01:35:06;;;;;;;5.80;3.97;;;20.70;51.80;;;;;;4997314;28;20197;-75
2023/05/28 01:37:36;;;;;;;6.80;4.05;;;20.80;51.90;;;;;;4997132;28;20699;-75
2023/05/28 01:40:03;;;;;;;5.78;3.70;;;20.70;51.70;;;;;;4997526;28;20212;-75
2023/05/28 01:42:32;;;;;;;4.65;3.85;;;20.70;51.70;;;;;;4997244;28;20227;-75
2023/05/28 01:44:59;;;;;;;7.78;4.28;;;20.80;51.90;;;;;;4996314;28;20284;-75
2023/05/28 01:47:32;;;;;;;4.57;3.65;;;20.70;51.40;;;;;;4997003;28;20215;-75
2023/05/28 01:49:59;;;;;;;4.78;3.83;;;20.70;51.70;;;;;;4997261;28;20197;-75
2023/05/28 01:52:26;;;;;;;5.22;4.10;;;20.70;51.90;;;;;;4997019;28;20248;-75
2023/05/28 01:54:53;;;;;;;4.97;3.90;;;20.70;52.00;;;;;;4996955;28;20197;-75
2023/05/28 01:57:20;;;;;;;8.05;4.43;;;20.70;51.70;;;;;;4996745;28;20212;-75
2023/05/28 01:59:49;;;;;;;6.32;3.92;;;20.70;51.60;;;;;;4996887;28;20201;-75
2023/05/28 02:02:16;;;;;;;5.22;3.92;;;20.70;51.90;;;;;;4996798;28;20280;-75
2023/05/28 02:04:43;;;;;;;4.72;3.85;;;20.60;51.30;;;;;;4996601;28;20203;-75
2023/05/28 02:07:10;;;;;;;5.13;3.90;;;20.60;51.40;;;;;;4996385;28;20284;-75
2023/05/28 02:09:37;;;;;;;4.72;3.83;;;20.60;51.40;;;;;;4981155;28;20212;-75
2023/05/28 02:12:05;;;;;;;8.18;4.20;;;20.60;51.70;;;;;;4996345;28;20729;-75
2023/05/28 02:14:32;;;;;;;4.57;3.83;;;20.50;51.40;;;;;;4996587;28;20637;-75
2023/05/28 02:17:01;;;;;;;4.97;3.90;;;20.50;51.50;;;;;;4996477;28;20571;-75
2023/05/28 02:19:28;;;;;;;4.60;3.67;;;20.50;51.70;;;;;;4996369;28;20649;-75
2023/05/28 02:21:55;;;;;;;4.82;3.85;;;20.40;51.60;;;;;;4996985;28;20221;-75
2023/05/28 02:24:22;;;;;;;4.68;3.90;;;20.50;51.70;;;;;;4996485;28;20263;-75
2023/05/28 02:26:50;;;;;;;5.05;4.10;;;20.40;51.80;;;;;;4996257;28;20205;-75
2023/05/28 02:29:17;;;;;;;6.55;4.18;;;20.40;51.60;;;;;;4996540;28;20668;-75
2023/05/28 02:31:44;;;;;;;5.28;4.03;;;20.40;51.60;;;;;;4996238;28;20217;-75
2023/05/28 02:34:12;;;;;;;5.45;3.97;;;20.40;51.50;;;;;;4996680;28;20658;-75
2023/05/28 02:36:40;;;;;;;5.13;3.88;;;20.40;51.90;;;;;;4996357;28;20210;-75
2023/05/28 02:39:10;;;;;;;4.80;4.15;;;20.40;51.90;;;;;;4996344;28;20217;-75
2023/05/28 02:41:37;;;;;;;5.22;4.00;;;20.30;51.60;;;;;;4996524;28;20228;-75
2023/05/28 02:44:04;;;;;;;6.75;4.35;;;20.30;51.90;;;;;;4996529;28;20216;-75
2023/05/28 02:46:32;;;;;;;5.43;4.05;;;20.30;51.60;;;;;;4996366;28;20663;-75
2023/05/28 02:48:59;;;;;;;4.32;3.50;;;20.30;52.00;;;;;;4997456;28;20201;-75
2023/05/28 02:51:30;;;;;;;4.57;3.58;;;20.30;51.50;;;;;;4997225;28;20593;-75
2023/05/28 02:54:08;;;;;;;5.63;4.20;;;20.30;51.90;;;;;;4997360;28;20193;-75
2023/05/28 02:56:36;;;;;;;5.68;4.10;;;20.30;51.60;;;;;;5002279;28;20200;-76
2023/05/28 02:59:03;;;;;;;5.05;3.88;;;20.30;51.90;;;;;;5003537;28;20225;-76
2023/05/28 03:01:30;;;;;;;5.53;4.05;;;20.30;51.60;;;;;;5000721;28;20252;-75
2023/05/28 03:03:57;;;;;;;4.78;3.45;;;20.20;51.60;;;;;;5000796;28;20552;-75
2023/05/28 03:06:24;;;;;;;5.07;4.07;;;20.20;51.50;;;;;;5000180;28;20203;-75
2023/05/28 03:08:55;;;;;;;6.30;4.00;;;20.20;51.80;;;;;;5000765;28;20195;-74
2023/05/28 03:11:23;;;;;;;5.28;3.78;;;20.20;51.80;;;;;;5000256;28;20303;-75
2023/05/28 03:13:50;;;;;;;5.30;3.90;;;20.20;51.70;;;;;;4984060;28;20714;-75
2023/05/28 03:16:18;;;;;;;4.18;3.22;;;20.20;51.60;;;;;;5000026;28;20201;-75
2023/05/28 03:18:45;;;;;;;4.95;3.47;;;20.20;51.20;;;;;;5000940;28;20330;-75
2023/05/28 03:21:12;;;;;;;4.57;3.97;;;20.30;51.50;;;;;;5000378;28;20221;-75
2023/05/28 03:23:39;;;;;;;5.22;3.53;;;20.20;51.90;;;;;;5000156;28;20209;-75
2023/05/28 03:26:36;;;;;;;4.40;3.50;;;20.30;51.40;;;;;;5011930;28;20201;-75
2023/05/28 03:29:03;;;;;;;6.00;3.80;;;20.30;51.20;;;;;;5001576;28;20727;-76
2023/05/28 03:31:43;;;;;;;4.90;3.58;;;20.30;51.60;;;;;;5021131;28;20315;-76
2023/05/28 03:34:10;;;;;;;5.10;3.60;;;20.30;51.50;;;;;;5005101;28;20236;-76
2023/05/28 03:36:38;;;;;;;4.47;3.65;;;20.40;51.50;;;;;;4999989;28;20660;-76
2023/05/28 03:39:05;;;;;;;5.47;3.80;;;20.40;51.20;;;;;;4999629;28;20683;-76
2023/05/28 03:41:34;;;;;;;3.90;3.50;;;20.50;51.20;;;;;;4999994;28;20220;-76
2023/05/28 03:44:02;;;;;;;4.95;3.30;;;20.50;51.00;;;;;;4999756;28;20679;-76
2023/05/28 03:46:30;;;;;;;4.30;3.90;;;20.60;51.00;;;;;;4999792;28;20212;-76
2023/05/28 03:48:57;;;;;;;4.55;3.55;;;20.60;50.70;;;;;;4999425;28;20683;-76
2023/05/28 03:51:26;;;;;;;4.65;3.28;;;20.60;50.60;;;;;;4999989;28;20217;-76
2023/05/28 03:53:53;;;;;;;3.97;3.28;;;20.60;50.20;;;;;;4999213;28;20198;-76
2023/05/28 03:56:21;;;;;;;4.38;3.50;;;20.60;50.20;;;;;;4999357;28;20208;-76
2023/05/28 03:58:52;;;;;;;5.53;3.65;;;20.60;50.00;;;;;;4999605;28;20221;-76
2023/05/28 04:01:20;;;;;;;4.47;3.65;;;20.70;49.90;;;;;;4998930;28;20711;-76
2023/05/28 04:03:47;;;;;;;5.63;3.72;;;20.70;49.70;;;;;;4999363;28;20196;-76
2023/05/28 04:06:14;;;;;;;5.22;3.50;;;20.70;49.80;;;;;;4999165;28;20201;-76
2023/05/28 04:08:42;;;;;;;5.10;3.67;;;20.70;49.80;;;;;;4998346;28;20670;-76
2023/05/28 04:11:09;;;;;;;6.60;3.63;;;20.70;49.70;;;;;;4998781;28;20410;-76
2023/05/28 04:13:36;;;;;;;4.70;4.18;;;20.70;49.70;;;;;;4999166;28;20204;-76
2023/05/28 04:16:06;;;;;;;4.85;3.75;;;20.80;49.90;;;;;;4983564;28;20216;-76
2023/05/28 04:18:33;;;;;;;4.25;3.40;;;20.80;49.80;;;;;;4998623;28;20765;-76
2023/05/28 04:21:02;;;;;;;4.90;3.60;;;20.80;49.80;;;;;;4999053;28;20208;-76
2023/05/28 04:23:30;;;;;;;5.03;3.70;;;20.80;49.80;;;;;;4999291;28;20296;-76
2023/05/28 04:25:57;;;;;;;3.95;3.40;;;20.80;49.90;;;;;;4998907;28;20215;-76
2023/05/28 04:28:27;;;;;;;3.47;3.15;;;20.80;50.00;;;;;;4999130;28;20659;-76
2023/05/28 04:30:54;;;;;;;3.67;3.22;;;20.80;49.50;;;;;;4998813;28;20200;-76
2023/05/28 04:33:23;;;;;;;5.10;3.70;;;20.80;49.70;;;;;;4998737;28;20197;-76
2023/05/28 04:35:51;;;;;;;4.80;3.60;;;20.90;49.70;;;;;;4998956;28;20574;-76
2023/05/28 04:38:18;;;;;;;3.90;3.50;;;20.80;49.70;;;;;;4998873;28;20201;-76
2023/05/28 04:40:45;;;;;;;4.28;3.55;;;20.90;49.70;;;;;;4998881;28;20204;-76
2023/05/28 04:43:13;;;;;;;3.90;3.47;;;20.90;49.90;;;;;;4982651;28;20240;-76
2023/05/28 04:45:42;;;;;;;4.43;3.45;;;20.90;49.80;;;;;;4999029;28;20201;-76
2023/05/28 04:48:09;;;;;;;3.90;3.30;;;21.00;49.50;;;;;;5014050;22;20236;-78
2023/05/28 04:50:37;;;;;;;3.85;3.45;;;21.10;49.30;;;;;;4998912;28;20189;-78
2023/05/28 04:53:04;;;;;;;3.72;3.30;;;21.30;49.10;;;;;;4998938;28;20302;-78
2023/05/28 04:55:31;;;;;;;4.13;3.10;;;21.40;48.90;;;;;;4999622;28;20287;-78
2023/05/28 04:57:58;;;;;;;4.35;3.33;;;21.50;48.70;;;;;;4998636;28;20201;-78
2023/05/28 05:00:28;;;;;;;4.70;3.40;;;21.60;48.50;;;;;;4982626;28;20224;-80
2023/05/28 05:02:57;;;;;;;6.07;3.78;;;21.70;48.20;;;;;;4998620;28;20217;-80
2023/05/28 05:05:24;;;;;;;5.50;3.45;;;21.80;48.10;;;;;;4982395;28;20224;-80
2023/05/28 05:07:54;;;;;;;3.70;3.40;;;21.90;48.00;;;;;;4998558;28;20542;-80
2023/05/28 05:10:21;;;;;;;4.28;3.30;;;22.00;47.80;;;;;;4998973;28;20200;-80
2023/05/28 05:12:50;;;;;;;4.05;3.15;;;22.10;47.50;;;;;;4998517;28;20213;-80
2023/05/28 05:15:17;;;;;;;5.25;3.53;;;22.20;47.50;;;;;;4998107;28;20205;-80
2023/05/28 05:17:44;;;;;;;4.13;3.65;;;22.30;47.50;;;;;;4998111;28;20199;-80
2023/05/28 05:20:11;;;;;;;3.88;3.40;;;22.40;47.30;;;;;;4997164;28;20260;-80
2023/05/28 05:22:39;;;;;;;4.63;3.40;;;22.50;47.10;;;;;;4998212;28;20220;-80
2023/05/28 05:25:09;;;;;;;3.85;3.28;;;22.60;47.00;;;;;;4998246;28;20196;-80
2023/05/28 05:27:38;;;;;;;4.70;3.67;;;22.70;46.90;;;;;;4998972;28;20551;-80
2023/05/28 05:30:06;;;;;;;4.32;3.50;;;22.80;46.70;;;;;;4997815;28;20217;-80
2023/05/28 05:32:33;;;;;;;3.60;3.30;;;22.90;46.60;;;;;;4998094;28;20244;-80
2023/05/28 05:35:00;;;;;;;4.93;3.78;;;23.00;46.50;;;;;;4997859;28;20205;-79
2023/05/28 05:37:46;;;;;;;5.05;3.90;;;23.10;46.30;;;;;;5015934;28;20243;-79
2023/05/28 05:40:24;;;;;;;5.00;3.75;;;23.20;46.10;;;;;;5015528;28;20282;-79
2023/05/28 05:43:15;;;;;;;4.78;3.70;;;23.30;46.20;;;;;;5012854;28;20212;-79
2023/05/28 05:45:42;;;;;;;5.47;3.90;;;23.40;45.90;;;;;;4998431;28;20668;-79
2023/05/28 05:48:11;;;;;;;6.30;4.20;;;23.50;46.40;;;;;;4999342;28;20219;-79
2023/05/28 05:50:48;;;;;;;4.60;3.58;;;23.50;45.60;;;;;;4998912;28;20195;-79
2023/05/28 05:53:15;;;;;;;4.93;4.25;;;23.60;45.40;;;;;;4998833;28;20648;-79
2023/05/28 05:55:45;;;;;;;4.95;3.75;;;23.70;45.30;;;;;;4998555;28;20255;-79
2023/05/28 05:58:13;;;;;;;5.20;3.35;;;23.80;45.20;;;;;;4998133;28;20667;-78
2023/05/28 06:00:40;;;;;;;5.18;3.60;;;23.90;45.00;;;;;;4981862;28;20220;-78
2023/05/28 06:03:09;;;;;;;4.15;3.72;;;24.00;44.90;;;;;;4998394;28;20228;-78
2023/05/28 06:05:55;;;;;;;4.25;3.50;;;24.00;44.60;;;;;;5001093;28;20188;-78
2023/05/28 06:08:41;;;;;;;5.70;4.20;;;24.20;44.60;;;;;;5018602;28;20192;-80
2023/05/28 06:11:23;;;;;;;5.10;3.50;;;24.20;44.40;;;;;;5001006;28;20231;-81
2023/05/28 06:13:51;;;;;;;4.30;3.70;;;24.30;44.30;;;;;;5006090;28;20203;-81
2023/05/28 06:16:19;;;;;;;4.65;3.58;;;24.40;44.20;;;;;;5003870;28;20193;-81
2023/05/28 06:18:47;;;;;;;3.85;3.45;;;24.50;44.00;;;;;;4999210;28;20203;-81
2023/05/28 06:21:14;;;;;;;4.15;3.35;;;24.50;43.90;;;;;;4998255;28;20307;-81
2023/05/28 06:23:42;;;;;;;3.92;3.20;;;24.60;43.80;;;;;;4998037;28;20201;-81
2023/05/28 06:26:09;;;;;;;3.58;3.25;;;24.70;43.70;;;;;;4997785;28;20575;-81
2023/05/28 06:28:38;;;;;;;5.07;3.53;;;24.70;43.50;;;;;;4997457;28;20283;-81
2023/05/28 06:31:06;;;;;;;4.85;2.92;;;24.80;43.50;;;;;;4996821;28;20630;-80
2023/05/28 06:33:33;;;;;;;3.30;3.00;;;24.80;43.40;;;;;;4998709;28;20608;-81
2023/05/28 06:36:01;;;;;;;3.50;3.17;;;24.90;43.30;;;;;;4997405;28;20197;-81
2023/05/28 06:38:28;;;;;;;3.33;3.00;;;24.90;43.10;;;;;;4997789;28;20204;-81
2023/05/28 06:40:55;;;;;;;3.40;3.10;;;25.00;43.10;;;;;;4997348;28;20227;-81
2023/05/28 06:43:25;;;;;;;3.45;3.15;;;25.10;43.00;;;;;;4997394;28;20247;-81
2023/05/28 06:46:06;;;;;;;3.78;3.15;;;25.10;42.80;;;;;;4998439;28;20625;-81
2023/05/28 06:48:33;;;;;;;3.50;3.20;;;25.20;42.70;;;;;;4997113;28;20291;-81
2023/05/28 06:51:01;;;;;;;3.30;3.00;;;25.30;42.60;;;;;;4997438;28;20208;-81
2023/05/28 06:53:28;;;;;;;4.45;3.28;;;25.30;42.50;;;;;;4997360;28;20790;-81
2023/05/28 06:55:55;;;;;;;4.25;3.15;;;25.30;42.30;;;;;;4998034;28;20666;-80
2023/05/28 06:58:57;;;;;;;3.22;2.90;;;25.40;42.20;;;;;;5014425;28;20234;-81
2023/05/28 07:01:51;;;;;;;3.05;2.75;;;25.40;42.10;;;;;;4996957;28;20240;-81
2023/05/28 07:04:42;;;;;;;3.38;3.03;;;25.50;42.00;;;;;;5012096;28;20276;-81
2023/05/28 07:07:13;;;;;;;3.95;3.15;;;25.60;41.90;;;;;;4997914;28;20185;-81
2023/05/28 07:09:41;;;;;;;3.08;2.78;;;25.70;41.80;;;;;;4981252;28;20216;-81
2023/05/28 07:12:08;;;;;;;3.00;2.80;;;25.70;41.70;;;;;;4965274;28;20236;-81
2023/05/28 07:14:38;;;;;;;3.50;3.20;;;25.70;41.50;;;;;;4996926;28;20279;-81
2023/05/28 07:17:07;;;;;;;3.30;3.00;;;25.80;41.50;;;;;;4981206;28;20223;-81
2023/05/28 07:19:34;;;;;;;3.47;2.88;;;25.80;41.40;;;;;;4996985;28;20303;-81
2023/05/28 07:22:02;;;;;;;3.33;2.92;;;25.80;41.10;;;;;;4997632;28;20299;-81
2023/05/28 07:24:29;;;;;;;3.50;3.03;;;25.90;41.20;;;;;;4998265;28;20235;-81
2023/05/28 07:26:57;;;;;;;3.35;3.03;;;25.90;41.20;;;;;;4981799;28;20199;-81
2023/05/28 07:29:24;;;;;;;3.53;3.17;;;25.90;41.20;;;;;;4997243;28;20255;-81
2023/05/28 07:31:51;;;;;;;3.25;2.95;;;25.90;41.20;;;;;;4999039;28;20231;-81
2023/05/28 07:34:23;;;;;;;3.22;2.88;;;25.90;41.20;;;;;;4999548;28;20197;-81
2023/05/28 07:36:51;;;;;;;2.92;2.53;;;26.00;41.10;;;;;;5000606;28;20251;-81
2023/05/28 07:39:17;;;;;;;3.28;2.97;;;26.00;41.00;;;;;;5001044;28;20192;-81
2023/05/28 07:41:45;;;;;;;3.17;2.80;;;26.10;41.00;;;;;;4999430;28;20674;-81
2023/05/28 07:44:21;;;;;;;3.22;2.92;;;26.10;40.90;;;;;;4986710;28;20247;-81
2023/05/28 07:46:48;;;;;;;3.30;3.00;;;26.20;40.90;;;;;;5002317;28;20205;-81
2023/05/28 07:49:29;;;;;;;3.22;2.80;;;26.20;40.80;;;;;;5001905;28;20204;-81
2023/05/28 07:51:59;;;;;;;3.28;2.97;;;26.20;40.70;;;;;;5000617;28;20585;-81
2023/05/28 07:54:30;;;;;;;2.80;2.60;;;26.30;40.60;;;;;;5000640;28;20197;-79
2023/05/28 07:57:00;;;;;;;3.33;2.90;;;26.30;40.50;;;;;;5000410;28;20287;-78
2023/05/28 07:59:32;;;;;;;3.20;2.90;;;26.30;40.40;;;;;;5000465;28;20204;-78
2023/05/28 08:02:01;;;;;;;2.97;2.70;;;26.40;40.40;;;;;;5000798;28;20667;-78
2023/05/28 08:04:31;;;;;;;3.20;2.90;;;26.40;40.30;;;;;;4988594;28;20192;-78
2023/05/28 08:06:58;;;;;;;3.15;2.85;;;26.40;40.20;;;;;;5003906;28;20603;-78
2023/05/28 08:09:26;;;;;;;3.20;2.90;;;26.40;40.20;;;;;;5003084;28;20196;-79
2023/05/28 08:11:55;;;;;;;3.83;3.22;;;26.50;40.10;;;;;;5002448;28;20222;-79
2023/05/28 08:14:26;;;;;;;3.58;2.85;;;26.50;40.10;;;;;;5002459;28;20192;-79
2023/05/28 08:16:56;;;;;;;3.10;2.80;;;26.50;40.00;;;;;;4987023;28;20196;-79
2023/05/28 08:19:40;;;;;;;3.28;2.97;;;26.60;40.00;;;;;;5000377;28;20515;-79
2023/05/28 08:22:21;;;;;;;3.05;2.75;;;26.60;39.90;;;;;;4999748;28;20270;-80
2023/05/28 08:24:49;;;;;;;2.70;2.50;;;26.70;39.80;;;;;;5000224;28;20200;-79
2023/05/28 08:27:16;;;;;;;2.95;2.65;;;26.70;39.60;;;;;;5000223;28;20204;-78
2023/05/28 08:29:43;;;;;;;3.30;2.90;;;26.80;39.70;;;;;;5000023;28;20210;-78
2023/05/28 08:32:10;;;;;;;3.75;3.05;;;26.80;39.50;;;;;;5000204;28;20227;-78
2023/05/28 08:34:41;;;;;;;7.03;3.92;;;26.80;39.40;;;;;;4999876;28;20204;-79
2023/05/28 08:37:08;;;;;;;6.43;4.20;;;26.70;36.60;;;;;;5000532;28;20218;-79
2023/05/28 08:39:54;;;;;;;9.93;4.20;;;26.70;35.50;;;;;;5000742;28;20299;-79
2023/05/28 08:42:23;;;;;;;6.18;4.40;;;26.60;36.20;;;;;;4999324;28;20223;-78
2023/05/28 08:44:51;;;;;;;6.68;4.35;;;26.60;36.30;;;;;;4999896;28;20199;-78
2023/05/28 08:47:18;;;;;;;7.07;4.63;;;26.50;36.20;;;;;;4983242;28;20596;-78
2023/05/28 08:49:53;;;;;;;6.20;4.20;;;26.40;36.10;;;;;;4999390;28;20251;-78
2023/05/28 08:52:24;;;;;;;7.03;4.22;;;26.40;35.90;;;;;;4999535;28;20216;-78
2023/05/28 08:54:51;;;;;;;7.38;4.38;;;26.30;36.60;;;;;;4982846;28;20250;-78
2023/05/28 08:57:18;;;;;;;8.20;4.38;;;26.20;37.00;;;;;;4983660;28;20200;-78
2023/05/28 08:59:52;;;;;;;8.48;4.32;;;26.20;36.20;;;;;;4999761;28;20206;-79
2023/05/28 09:02:19;;;;;;;9.48;5.10;;;26.20;36.20;;;;;;4983143;28;20282;-78
2023/05/28 09:04:46;;;;;;;28.30;18.77;;;26.20;36.30;;;;;;4982467;28;20221;-78
2023/05/28 09:07:16;;;;;;;42.90;27.85;;;26.00;36.20;;;;;;4982576;28;20573;-78
2023/05/28 09:09:51;;;;;;;81.80;49.80;;;26.10;36.60;;;;;;4983339;28;20278;-79
2023/05/28 09:12:21;;;;;;;44.33;28.73;;;26.10;37.00;;;;;;4998345;28;20642;-79
2023/05/28 09:14:52;;;;;;;27.73;19.45;;;26.20;36.70;;;;;;4998947;28;20203;-78
2023/05/28 09:17:35;;;;;;;33.25;22.20;;;26.20;36.90;;;;;;4998187;28;20577;-78
2023/05/28 09:20:12;;;;;;;24.63;14.43;;;26.20;36.70;;;;;;4998750;28;20750;-78
2023/05/28 09:22:41;;;;;;;14.32;9.38;;;26.20;36.70;;;;;;4982728;28;20227;-79
2023/05/28 09:25:24;;;;;;;10.25;6.95;;;26.20;36.70;;;;;;4999781;28;20189;-79
2023/05/28 09:28:06;;;;;;;9.38;6.00;;;26.20;37.30;;;;;;4985325;28;20280;-79
2023/05/28 09:30:35;;;;;;;9.43;5.25;;;26.20;37.00;;;;;;4999665;28;20346;-78
2023/05/28 09:33:03;;;;;;;5.88;4.68;;;26.20;36.70;;;;;;4984766;28;20220;-78
2023/05/28 09:35:30;;;;;;;8.27;4.95;;;26.10;36.60;;;;;;4998821;28;20204;-79
2023/05/28 09:38:02;;;;;;;8.40;4.55;;;26.10;37.00;;;;;;4998460;28;20203;-79
2023/05/28 09:40:30;;;;;;;8.85;4.85;;;26.10;36.60;;;;;;4997842;28;20224;-79
2023/05/28 09:42:57;;;;;;;7.88;4.82;;;26.20;36.90;;;;;;4981805;28;20224;-79
2023/05/28 09:45:25;;;;;;;7.10;4.30;;;26.20;37.20;;;;;;4998066;28;20199;-78
2023/05/28 09:47:52;;;;;;;8.23;4.20;;;26.20;37.00;;;;;;4998778;28;20212;-79
2023/05/28 09:50:19;;;;;;;6.25;4.20;;;26.20;37.10;;;;;;4997942;28;20204;-79
2023/05/28 09:52:46;;;;;;;5.80;4.03;;;26.20;37.20;;;;;;5015110;28;20744;-79
2023/05/28 09:55:18;;;;;;;8.43;4.65;;;26.20;36.60;;;;;;4998215;28;20216;-79
2023/05/28 09:57:54;;;;;;;5.57;4.35;;;26.20;36.70;;;;;;4998240;28;20196;-79
2023/05/28 10:00:26;;;;;;;8.45;4.47;;;26.30;36.80;;;;;;4998626;28;20218;-79
2023/05/28 10:02:59;;;;;;;5.55;4.35;;;26.30;36.50;;;;;;4997943;28;20275;-78
2023/05/28 10:05:27;;;;;;;6.47;3.92;;;26.30;36.90;;;;;;4997423;28;20220;-79
2023/05/28 10:07:54;;;;;;;6.95;4.47;;;26.40;36.30;;;;;;4997970;28;20203;-79
2023/05/28 10:10:22;;;;;;;8.55;4.47;;;26.40;36.00;;;;;;4998257;28;20651;-80
2023/05/28 10:12:53;;;;;;;5.60;4.00;;;26.40;36.30;;;;;;4998449;28;20228;-78
2023/05/28 10:15:20;;;;;;;8.80;4.60;;;26.40;36.70;;;;;;4998539;28;20224;-80
2023/05/28 10:17:48;;;;;;;7.75;4.40;;;26.40;36.10;;;;;;4999465;28;20207;-79
2023/05/28 10:20:15;;;;;;;6.90;4.22;;;26.30;35.30;;;;;;4998556;28;20207;-79
2023/05/28 10:22:42;;;;;;;7.38;4.18;;;26.40;35.50;;;;;;4982993;28;20227;-79
2023/05/28 10:25:10;;;;;;;6.55;4.10;;;26.40;35.50;;;;;;4999302;28;20604;-80
2023/05/28 10:27:44;;;;;;;7.30;3.83;;;26.40;35.70;;;;;;4998261;28;20236;-80
2023/05/28 10:30:12;;;;;;;7.10;3.90;;;26.40;35.90;;;;;;5000081;28;20271;-79
2023/05/28 10:32:40;;;;;;;5.85;4.13;;;26.40;34.40;;;;;;4998563;28;20710;-79
2023/05/28 10:35:10;;;;;;;5.28;3.97;;;26.30;34.70;;;;;;4998441;28;20693;-79
2023/05/28 10:37:37;;;;;;;7.97;4.18;;;26.30;35.30;;;;;;4982579;28;20204;-79
2023/05/28 10:40:07;;;;;;;5.90;3.80;;;26.30;35.80;;;;;;4998765;28;20204;-79
2023/05/28 10:42:41;;;;;;;6.95;3.80;;;26.30;36.00;;;;;;4997735;28;20294;-78
2023/05/28 10:45:09;;;;;;;6.53;4.20;;;26.30;36.40;;;;;;4997640;28;20212;-79
2023/05/28 10:47:37;;;;;;;6.82;4.00;;;26.30;36.00;;;;;;5037684;22;20226;-76
2023/05/28 10:50:14;;;;;;;7.65;4.10;;;26.20;36.20;;;;;;4997903;28;20208;-75
2023/05/28 10:52:42;;;;;;;5.60;3.97;;;26.20;35.60;;;;;;5015074;28;20219;-76
2023/05/28 10:55:09;;;;;;;7.03;3.85;;;26.20;36.30;;;;;;4998013;28;20650;-75
2023/05/28 10:57:42;;;;;;;6.20;4.22;;;26.20;35.80;;;;;;4996842;28;20568;-76
2023/05/28 11:00:13;;;;;;;7.50;4.45;;;26.20;36.10;;;;;;4997360;28;20196;-76
2023/05/28 11:02:40;;;;;;;8.57;4.40;;;26.10;35.50;;;;;;4996911;28;20220;-75
2023/05/28 11:05:08;;;;;;;6.32;4.25;;;26.10;35.10;;;;;;4997424;28;20200;-75
2023/05/28 11:07:36;;;;;;;7.40;3.80;;;26.10;35.60;;;;;;5015871;28;20189;-75
2023/05/28 11:10:04;;;;;;;6.63;4.63;;;26.10;35.90;;;;;;4997734;28;20200;-75
2023/05/28 11:12:32;;;;;;;6.55;4.40;;;26.00;36.00;;;;;;4997620;28;20227;-75
2023/05/28 11:15:00;;;;;;;7.32;4.20;;;26.00;36.20;;;;;;4996968;28;20200;-75
2023/05/28 11:17:27;;;;;;;7.63;4.30;;;26.00;36.40;;;;;;5000944;28;20659;-77
2023/05/28 11:19:54;;;;;;;6.90;3.90;;;26.00;36.30;;;;;;5004418;28;20204;-76
2023/05/28 11:22:21;;;;;;;7.00;3.97;;;26.00;36.10;;;;;;5000624;28;20238;-76
2023/05/28 11:24:58;;;;;;;7.28;4.03;;;25.90;35.40;;;;;;5001308;28;20220;-75
2023/05/28 11:27:26;;;;;;;7.25;4.30;;;25.90;35.50;;;;;;4998262;28;20196;-75
2023/05/28 11:29:55;;;;;;;7.32;4.07;;;25.90;35.60;;;;;;5001494;28;20238;-75
2023/05/28 11:32:24;;;;;;;6.43;3.60;;;26.00;35.50;;;;;;5001630;28;20282;-75
2023/05/28 11:34:52;;;;;;;6.13;3.95;;;25.90;35.20;;;;;;5001387;28;20223;-75
2023/05/28 11:37:25;;;;;;;5.95;3.65;;;25.90;34.70;;;;;;5000443;28;20204;-77
2023/05/28 11:39:53;;;;;;;8.27;4.40;;;25.90;34.70;;;;;;5001694;28;20201;-77
2023/05/28 11:42:20;;;;;;;4.90;3.88;;;25.90;35.30;;;;;;5002266;28;20232;-76
2023/05/28 11:44:47;;;;;;;6.72;3.80;;;25.90;35.60;;;;;;4984910;28;20294;-76
2023/05/28 11:47:14;;;;;;;7.00;3.92;;;25.90;35.20;;;;;;5000707;28;20200;-75
2023/05/28 11:49:43;;;;;;;5.30;4.00;;;25.90;35.30;;;;;;4984141;28;20243;-75
2023/05/28 11:52:13;;;;;;;6.95;4.20;;;25.90;35.00;;;;;;5000602;28;20217;-75
2023/05/28 11:54:41;;;;;;;6.35;4.03;;;25.90;35.10;;;;;;5000162;28;20201;-76
2023/05/28 11:57:09;;;;;;;6.45;3.95;;;25.90;35.00;;;;;;5000480;28;20211;-76
2023/05/28 11:59:36;;;;;;;6.85;3.65;;;25.90;34.90;;;;;;5017197;28;20651;-76
2023/05/28 12:02:13;;;;;;;5.65;3.88;;;25.80;35.10;;;;;;4983348;28;20327;-77
2023/05/28 12:04:40;;;;;;;6.05;3.42;;;25.80;35.10;;;;;;5000295;28;20192;-75
2023/05/28 12:07:08;;;;;;;5.38;3.78;;;25.80;34.80;;;;;;5000234;28;20565;-75
2023/05/28 12:09:36;;;;;;;5.65;3.72;;;25.80;34.70;;;;;;4999326;28;20197;-75
2023/05/28 12:12:05;;;;;;;5.82;3.70;;;25.80;34.60;;;;;;5016893;28;20263;-75
2023/05/28 12:14:32;;;;;;;6.97;4.22;;;25.80;34.60;;;;;;5000121;28;20617;-75
2023/05/28 12:17:08;;;;;;;5.55;3.42;;;25.70;34.40;;;;;;4999824;28;20215;-75
2023/05/28 12:19:35;;;;;;;6.15;3.83;;;25.70;34.50;;;;;;5000849;28;20203;-75
2023/05/28 12:22:02;;;;;;;6.72;3.45;;;25.70;33.80;;;;;;5017998;28;20216;-75
2023/05/28 12:24:31;;;;;;;7.68;3.83;;;25.80;33.60;;;;;;5000080;28;20211;-75
2023/05/28 12:26:57;;;;;;;5.10;3.50;;;25.80;32.90;;;;;;4999743;28;20234;-75
2023/05/28 12:29:24;;;;;;;5.00;3.78;;;25.80;33.30;;;;;;5004009;28;20192;-75
2023/05/28 12:31:59;;;;;;;5.72;3.92;;;25.80;33.50;;;;;;5008064;28;20267;-76
2023/05/28 12:34:26;;;;;;;5.63;4.00;;;25.80;34.10;;;;;;4987929;28;20210;-76
2023/05/28 12:36:53;;;;;;;5.90;3.40;;;25.70;34.50;;;;;;4999696;28;20243;-76
2023/05/28 12:39:21;;;;;;;5.18;3.35;;;25.70;35.00;;;;;;4998965;28;20224;-76
2023/05/28 12:41:49;;;;;;;4.85;3.75;;;25.60;35.30;;;;;;4999074;28;20295;-76
2023/05/28 12:44:16;;;;;;;4.40;3.33;;;25.60;35.50;;;;;;4998704;28;20254;-76
2023/05/28 12:46:43;;;;;;;5.30;3.50;;;25.60;35.70;;;;;;4997905;28;20628;-76
2023/05/28 12:49:10;;;;;;;5.63;3.78;;;25.60;36.60;;;;;;4998269;28;20204;-76
2023/05/28 12:51:38;;;;;;;5.45;3.53;;;25.60;36.20;;;;;;5005822;28;20220;-76
2023/05/28 12:54:06;;;;;;;5.88;3.55;;;25.60;36.30;;;;;;5003809;28;20608;-76
2023/05/28 12:56:34;;;;;;;6.10;3.80;;;25.50;36.70;;;;;;4999254;28;20250;-76